sensor_id;sensor_type;location;lat;lon;timestamp;noise_LAeq;noise_LA_min;noise_LA_max;noise_LA01;noise_LA95
73638;Laerm;53743;51.100;5.874;2023-05-23T00:00:05;30.15;28.49;32.12;;
73638;Laerm;53743;51.100;5.874;2023-05-23T00:01:12;30.24;28.03;33.88;;
73638;Laerm;53743;51.100;5.874;2023-05-23T00:02:16;30.01;28.22;38.56;;
73638;Laerm;53743;51.100;5.874;2023-05-23T00:03:17;30.70;28.77;34.24;;
73638;Laerm;53743;51.100;5.874;2023-05-23T00:04:22;31.60;28.93;42.83;;
73638;Laerm;53743;51.100;5.874;2023-05-23T00:05:26;31.99;28.36;48.79;;
73638;Laerm;53743;51.100;5.874;2023-05-23T00:06:28;53.86;29.35;68.09;;
73638;Laerm;53743;51.100;5.874;2023-05-23T00:07:29;31.63;29.50;35.66;;
73638;Laerm;53743;51.100;5.874;2023-05-23T00:08:32;58.10;29.25;74.26;;
73638;Laerm;53743;51.100;5.874;2023-05-23T00:09:33;34.06;29.62;43.98;;
73638;Laerm;53743;51.100;5.874;2023-05-23T00:10:35;31.79;29.64;35.21;;
73638;Laerm;53743;51.100;5.874;2023-05-23T00:11:36;32.05;29.73;36.55;;
73638;Laerm;53743;51.100;5.874;2023-05-23T00:12:38;35.30;29.41;44.77;;
73638;Laerm;53743;51.100;5.874;2023-05-23T00:13:41;56.10;31.53;71.36;;
73638;Laerm;53743;51.100;5.874;2023-05-23T00:14:43;33.95;30.13;41.96;;
73638;Laerm;53743;51.100;5.874;2023-05-23T00:15:44;32.51;29.56;55.88;;
73638;Laerm;53743;51.100;5.874;2023-05-23T00:16:48;34.23;29.56;40.69;;
73638;Laerm;53743;51.100;5.874;2023-05-23T00:17:49;32.82;29.30;37.55;;
73638;Laerm;53743;51.100;5.874;2023-05-23T00:18:51;31.50;29.55;41.41;;
73638;Laerm;53743;51.100;5.874;2023-05-23T00:19:53;31.37;29.13;34.82;;
73638;Laerm;53743;51.100;5.874;2023-05-23T00:20:55;31.48;29.25;38.32;;
73638;Laerm;53743;51.100;5.874;2023-05-23T00:21:57;32.09;29.58;48.65;;
73638;Laerm;53743;51.100;5.874;2023-05-23T00:22:59;31.80;29.36;40.96;;
73638;Laerm;53743;51.100;5.874;2023-05-23T00:24:00;31.16;28.71;34.02;;
73638;Laerm;53743;51.100;5.874;2023-05-23T00:25:05;31.16;29.15;34.21;;
73638;Laerm;53743;51.100;5.874;2023-05-23T00:26:06;32.50;29.34;38.56;;
73638;Laerm;53743;51.100;5.874;2023-05-23T00:27:08;33.52;30.24;40.85;;
73638;Laerm;53743;51.100;5.874;2023-05-23T00:28:09;33.46;30.21;41.42;;
73638;Laerm;53743;51.100;5.874;2023-05-23T00:29:13;32.65;30.23;42.10;;
73638;Laerm;53743;51.100;5.874;2023-05-23T00:30:16;32.23;29.70;37.85;;
73638;Laerm;53743;51.100;5.874;2023-05-23T00:31:19;31.29;29.15;34.80;;
73638;Laerm;53743;51.100;5.874;2023-05-23T00:32:20;33.90;29.65;43.31;;
73638;Laerm;53743;51.100;5.874;2023-05-23T00:33:21;56.35;32.72;71.63;;
73638;Laerm;53743;51.100;5.874;2023-05-23T00:34:23;44.97;33.32;52.94;;
73638;Laerm;53743;51.100;5.874;2023-05-23T00:35:26;34.13;30.28;41.88;;
73638;Laerm;53743;51.100;5.874;2023-05-23T00:36:28;31.39;29.11;42.71;;
73638;Laerm;53743;51.100;5.874;2023-05-23T00:37:30;30.95;28.57;33.61;;
73638;Laerm;53743;51.100;5.874;2023-05-23T00:38:32;30.64;28.72;32.93;;
73638;Laerm;53743;51.100;5.874;2023-05-23T00:39:34;31.66;29.29;43.02;;
73638;Laerm;53743;51.100;5.874;2023-05-23T00:40:34;31.04;29.00;40.40;;
73638;Laerm;53743;51.100;5.874;2023-05-23T00:41:36;31.12;29.04;35.78;;
73638;Laerm;53743;51.100;5.874;2023-05-23T00:42:37;31.44;29.06;44.70;;
73638;Laerm;53743;51.100;5.874;2023-05-23T00:43:39;32.83;29.49;47.96;;
73638;Laerm;53743;51.100;5.874;2023-05-23T00:44:42;31.62;29.47;39.41;;
73638;Laerm;53743;51.100;5.874;2023-05-23T00:45:44;31.16;29.38;34.15;;
73638;Laerm;53743;51.100;5.874;2023-05-23T00:46:51;31.64;29.30;40.23;;
73638;Laerm;53743;51.100;5.874;2023-05-23T00:47:54;31.38;29.10;37.72;;
73638;Laerm;53743;51.100;5.874;2023-05-23T00:48:56;31.01;29.12;33.65;;
73638;Laerm;53743;51.100;5.874;2023-05-23T00:49:59;30.74;28.90;34.47;;
73638;Laerm;53743;51.100;5.874;2023-05-23T00:51:00;32.49;29.75;42.79;;
73638;Laerm;53743;51.100;5.874;2023-05-23T00:52:04;31.60;29.52;46.73;;
73638;Laerm;53743;51.100;5.874;2023-05-23T00:53:05;31.91;29.34;40.86;;
73638;Laerm;53743;51.100;5.874;2023-05-23T00:54:08;30.74;28.69;34.13;;
73638;Laerm;53743;51.100;5.874;2023-05-23T00:55:10;30.91;29.05;38.19;;
73638;Laerm;53743;51.100;5.874;2023-05-23T00:56:12;30.70;28.33;37.32;;
73638;Laerm;53743;51.100;5.874;2023-05-23T00:57:14;30.69;28.70;36.02;;
73638;Laerm;53743;51.100;5.874;2023-05-23T00:58:16;31.53;28.54;38.92;;
73638;Laerm;53743;51.100;5.874;2023-05-23T00:59:18;30.69;28.67;37.55;;
73638;Laerm;53743;51.100;5.874;2023-05-23T01:00:23;31.32;29.10;39.87;;
73638;Laerm;53743;51.100;5.874;2023-05-23T01:01:25;31.66;30.06;34.17;;
73638;Laerm;53743;51.100;5.874;2023-05-23T01:02:28;31.87;30.03;34.94;;
73638;Laerm;53743;51.100;5.874;2023-05-23T01:03:31;32.18;30.28;36.70;;
73638;Laerm;53743;51.100;5.874;2023-05-23T01:04:35;31.84;30.01;36.43;;
73638;Laerm;53743;51.100;5.874;2023-05-23T01:05:39;32.20;29.75;44.13;;
73638;Laerm;53743;51.100;5.874;2023-05-23T01:06:41;31.98;30.09;35.68;;
73638;Laerm;53743;51.100;5.874;2023-05-23T01:07:47;31.63;29.55;38.55;;
73638;Laerm;53743;51.100;5.874;2023-05-23T01:08:50;31.76;29.89;34.21;;
73638;Laerm;53743;51.100;5.874;2023-05-23T01:09:51;34.26;31.64;48.32;;
73638;Laerm;53743;51.100;5.874;2023-05-23T01:11:01;34.42;31.60;39.78;;
73638;Laerm;53743;51.100;5.874;2023-05-23T01:12:19;34.00;31.06;50.17;;
73638;Laerm;53743;51.100;5.874;2023-05-23T01:13:38;32.63;30.78;36.12;;
73638;Laerm;53743;51.100;5.874;2023-05-23T01:14:50;33.06;30.52;44.27;;
73638;Laerm;53743;51.100;5.874;2023-05-23T01:16:01;33.26;30.37;51.55;;
73638;Laerm;53743;51.100;5.874;2023-05-23T01:17:16;53.49;31.49;69.42;;
73638;Laerm;53743;51.100;5.874;2023-05-23T01:18:27;56.10;31.32;72.20;;
73638;Laerm;53743;51.100;5.874;2023-05-23T01:19:57;32.89;30.69;39.85;;
73638;Laerm;53743;51.100;5.874;2023-05-23T01:21:08;33.38;31.12;38.32;;
73638;Laerm;53743;51.100;5.874;2023-05-23T01:22:23;55.16;30.69;70.81;;
73638;Laerm;53743;51.100;5.874;2023-05-23T01:24:07;34.49;30.03;52.43;;
73638;Laerm;53743;51.100;5.874;2023-05-23T01:25:38;33.28;31.23;42.56;;
73638;Laerm;53743;51.100;5.874;2023-05-23T01:27:07;32.90;30.29;49.31;;
73638;Laerm;53743;51.100;5.874;2023-05-23T01:28:16;32.76;30.35;37.19;;
73638;Laerm;53743;51.100;5.874;2023-05-23T01:29:25;32.76;30.20;43.76;;
73638;Laerm;53743;51.100;5.874;2023-05-23T01:30:32;32.63;30.87;35.18;;
73638;Laerm;53743;51.100;5.874;2023-05-23T01:31:42;33.39;30.95;38.28;;
73638;Laerm;53743;51.100;5.874;2023-05-23T01:32:49;32.89;30.41;38.65;;
73638;Laerm;53743;51.100;5.874;2023-05-23T01:33:55;33.66;31.46;43.30;;
73638;Laerm;53743;51.100;5.874;2023-05-23T01:34:59;33.76;31.20;42.45;;
73638;Laerm;53743;51.100;5.874;2023-05-23T01:36:01;33.71;30.86;50.99;;
73638;Laerm;53743;51.100;5.874;2023-05-23T01:37:07;34.96;31.36;57.05;;
73638;Laerm;53743;51.100;5.874;2023-05-23T01:38:10;34.04;30.90;46.44;;
73638;Laerm;53743;51.100;5.874;2023-05-23T01:39:11;33.62;31.07;53.72;;
73638;Laerm;53743;51.100;5.874;2023-05-23T01:40:14;33.23;31.23;36.83;;
73638;Laerm;53743;51.100;5.874;2023-05-23T01:41:15;33.26;30.81;45.87;;
73638;Laerm;53743;51.100;5.874;2023-05-23T01:42:17;33.42;30.84;38.39;;
73638;Laerm;53743;51.100;5.874;2023-05-23T01:43:21;32.43;30.48;44.66;;
73638;Laerm;53743;51.100;5.874;2023-05-23T01:44:27;33.07;30.65;41.63;;
73638;Laerm;53743;51.100;5.874;2023-05-23T01:45:30;34.32;31.50;44.85;;
73638;Laerm;53743;51.100;5.874;2023-05-23T01:46:34;33.44;31.12;40.22;;
73638;Laerm;53743;51.100;5.874;2023-05-23T01:47:40;34.96;31.61;44.30;;
73638;Laerm;53743;51.100;5.874;2023-05-23T01:48:45;34.59;31.11;53.32;;
73638;Laerm;53743;51.100;5.874;2023-05-23T01:49:47;34.23;31.24;38.27;;
73638;Laerm;53743;51.100;5.874;2023-05-23T01:50:50;38.40;32.13;61.68;;
73638;Laerm;53743;51.100;5.874;2023-05-23T01:51:52;37.78;33.42;56.30;;
73638;Laerm;53743;51.100;5.874;2023-05-23T01:52:56;36.88;32.71;52.13;;
73638;Laerm;53743;51.100;5.874;2023-05-23T01:53:58;36.78;32.40;49.36;;
73638;Laerm;53743;51.100;5.874;2023-05-23T01:55:04;34.98;32.17;40.20;;
73638;Laerm;53743;51.100;5.874;2023-05-23T01:56:10;34.36;31.13;47.73;;
73638;Laerm;53743;51.100;5.874;2023-05-23T01:57:13;34.94;32.11;43.27;;
73638;Laerm;53743;51.100;5.874;2023-05-23T01:58:14;34.38;32.17;37.82;;
73638;Laerm;53743;51.100;5.874;2023-05-23T01:59:17;34.62;31.80;38.86;;
73638;Laerm;53743;51.100;5.874;2023-05-23T02:00:19;33.51;30.77;36.53;;
73638;Laerm;53743;51.100;5.874;2023-05-23T02:01:22;32.48;30.54;36.54;;
73638;Laerm;53743;51.100;5.874;2023-05-23T02:02:23;32.97;30.56;44.47;;
73638;Laerm;53743;51.100;5.874;2023-05-23T02:03:25;33.81;31.29;51.21;;
73638;Laerm;53743;51.100;5.874;2023-05-23T02:04:27;34.04;30.39;48.60;;
73638;Laerm;53743;51.100;5.874;2023-05-23T02:05:29;32.39;30.42;37.67;;
73638;Laerm;53743;51.100;5.874;2023-05-23T02:06:30;35.19;30.71;44.45;;
73638;Laerm;53743;51.100;5.874;2023-05-23T02:07:32;33.83;30.68;41.87;;
73638;Laerm;53743;51.100;5.874;2023-05-23T02:08:33;36.98;30.73;48.59;;
73638;Laerm;53743;51.100;5.874;2023-05-23T02:09:36;59.56;30.44;73.08;;
73638;Laerm;53743;51.100;5.874;2023-05-23T02:10:37;56.89;30.43;71.61;;
73638;Laerm;53743;51.100;5.874;2023-05-23T02:11:39;32.79;30.59;37.09;;
73638;Laerm;53743;51.100;5.874;2023-05-23T02:12:40;33.20;31.00;36.61;;
73638;Laerm;53743;51.100;5.874;2023-05-23T02:13:43;34.41;31.39;38.30;;
73638;Laerm;53743;51.100;5.874;2023-05-23T02:14:45;34.04;31.32;38.10;;
73638;Laerm;53743;51.100;5.874;2023-05-23T02:15:47;33.14;31.07;36.29;;
73638;Laerm;53743;51.100;5.874;2023-05-23T02:16:50;34.82;30.63;42.83;;
73638;Laerm;53743;51.100;5.874;2023-05-23T02:17:54;33.99;31.06;39.29;;
73638;Laerm;53743;51.100;5.874;2023-05-23T02:18:56;35.05;31.38;53.78;;
73638;Laerm;53743;51.100;5.874;2023-05-23T02:19:57;33.54;31.06;40.24;;
73638;Laerm;53743;51.100;5.874;2023-05-23T02:20:59;36.85;32.01;47.53;;
73638;Laerm;53743;51.100;5.874;2023-05-23T02:22:00;35.43;31.08;43.16;;
73638;Laerm;53743;51.100;5.874;2023-05-23T02:23:02;33.81;31.40;40.41;;
73638;Laerm;53743;51.100;5.874;2023-05-23T02:24:04;33.31;30.80;45.61;;
73638;Laerm;53743;51.100;5.874;2023-05-23T02:25:07;32.88;30.31;41.75;;
73638;Laerm;53743;51.100;5.874;2023-05-23T02:26:08;58.53;30.48;75.76;;
73638;Laerm;53743;51.100;5.874;2023-05-23T02:27:10;34.26;30.28;45.89;;
73638;Laerm;53743;51.100;5.874;2023-05-23T02:28:11;34.84;30.39;46.32;;
73638;Laerm;53743;51.100;5.874;2023-05-23T02:29:13;34.05;30.25;48.51;;
73638;Laerm;53743;51.100;5.874;2023-05-23T02:30:15;33.82;30.43;42.82;;
73638;Laerm;53743;51.100;5.874;2023-05-23T02:31:18;34.73;30.77;45.64;;
73638;Laerm;53743;51.100;5.874;2023-05-23T02:32:19;50.42;31.18;68.82;;
73638;Laerm;53743;51.100;5.874;2023-05-23T02:33:21;59.77;31.90;74.14;;
73638;Laerm;53743;51.100;5.874;2023-05-23T02:34:22;51.81;31.92;66.37;;
73638;Laerm;53743;51.100;5.874;2023-05-23T02:35:24;40.33;31.83;54.24;;
73638;Laerm;53743;51.100;5.874;2023-05-23T02:36:24;42.50;31.55;54.21;;
73638;Laerm;53743;51.100;5.874;2023-05-23T02:37:27;44.60;31.18;58.95;;
73638;Laerm;53743;51.100;5.874;2023-05-23T02:38:28;45.53;32.29;59.67;;
73638;Laerm;53743;51.100;5.874;2023-05-23T02:39:31;54.89;32.64;68.41;;
73638;Laerm;53743;51.100;5.874;2023-05-23T02:40:32;58.68;31.74;71.69;;
73638;Laerm;53743;51.100;5.874;2023-05-23T02:41:35;55.91;31.99;69.86;;
73638;Laerm;53743;51.100;5.874;2023-05-23T02:42:37;55.14;32.95;67.75;;
73638;Laerm;53743;51.100;5.874;2023-05-23T02:43:39;55.29;33.24;68.46;;
73638;Laerm;53743;51.100;5.874;2023-05-23T02:44:40;54.83;32.55;68.89;;
73638;Laerm;53743;51.100;5.874;2023-05-23T02:45:43;48.98;33.21;68.13;;
73638;Laerm;53743;51.100;5.874;2023-05-23T02:46:44;46.03;33.46;59.52;;
73638;Laerm;53743;51.100;5.874;2023-05-23T02:47:46;58.25;33.04;74.63;;
73638;Laerm;53743;51.100;5.874;2023-05-23T02:48:47;58.29;34.88;73.66;;
73638;Laerm;53743;51.100;5.874;2023-05-23T02:49:49;58.92;33.87;74.67;;
73638;Laerm;53743;51.100;5.874;2023-05-23T02:50:50;46.11;32.96;58.17;;
73638;Laerm;53743;51.100;5.874;2023-05-23T02:51:52;54.92;33.27;70.23;;
73638;Laerm;53743;51.100;5.874;2023-05-23T02:52:53;45.72;34.25;60.53;;
73638;Laerm;53743;51.100;5.874;2023-05-23T02:53:55;58.23;34.65;73.25;;
73638;Laerm;53743;51.100;5.874;2023-05-23T02:54:56;49.21;33.27;62.92;;
73638;Laerm;53743;51.100;5.874;2023-05-23T02:55:59;45.73;33.48;58.76;;
73638;Laerm;53743;51.100;5.874;2023-05-23T02:57:00;45.97;32.55;59.54;;
73638;Laerm;53743;51.100;5.874;2023-05-23T02:58:01;44.72;33.37;58.36;;
73638;Laerm;53743;51.100;5.874;2023-05-23T02:59:05;44.70;33.42;55.36;;
73638;Laerm;53743;51.100;5.874;2023-05-23T03:00:09;62.09;35.49;76.57;;
73638;Laerm;53743;51.100;5.874;2023-05-23T03:01:13;54.34;34.58;70.30;;
73638;Laerm;53743;51.100;5.874;2023-05-23T03:02:15;48.53;33.26;62.97;;
73638;Laerm;53743;51.100;5.874;2023-05-23T03:03:16;49.50;35.93;61.65;;
73638;Laerm;53743;51.100;5.874;2023-05-23T03:04:18;47.10;34.05;60.51;;
73638;Laerm;53743;51.100;5.874;2023-05-23T03:05:19;54.88;33.74;69.81;;
73638;Laerm;53743;51.100;5.874;2023-05-23T03:06:21;54.26;34.50;68.57;;
73638;Laerm;53743;51.100;5.874;2023-05-23T03:07:22;58.66;35.85;74.79;;
73638;Laerm;53743;51.100;5.874;2023-05-23T03:08:25;40.38;33.67;52.77;;
73638;Laerm;53743;51.100;5.874;2023-05-23T03:09:26;58.61;35.07;72.11;;
73638;Laerm;53743;51.100;5.874;2023-05-23T03:10:28;44.66;33.43;57.18;;
73638;Laerm;53743;51.100;5.874;2023-05-23T03:11:29;53.61;33.44;67.12;;
73638;Laerm;53743;51.100;5.874;2023-05-23T03:12:33;47.62;34.71;61.39;;
73638;Laerm;53743;51.100;5.874;2023-05-23T03:13:35;57.93;35.02;73.60;;
73638;Laerm;53743;51.100;5.874;2023-05-23T03:14:37;43.23;34.58;64.14;;
73638;Laerm;53743;51.100;5.874;2023-05-23T03:15:38;40.88;34.20;54.18;;
73638;Laerm;53743;51.100;5.874;2023-05-23T03:16:41;40.21;34.50;51.68;;
73638;Laerm;53743;51.100;5.874;2023-05-23T03:17:42;56.67;34.57;73.00;;
73638;Laerm;53743;51.100;5.874;2023-05-23T03:18:44;39.64;33.74;52.86;;
73638;Laerm;53743;51.100;5.874;2023-05-23T03:19:45;39.33;33.98;53.30;;
73638;Laerm;53743;51.100;5.874;2023-05-23T03:20:47;60.45;35.16;74.27;;
73638;Laerm;53743;51.100;5.874;2023-05-23T03:21:48;58.27;35.82;72.29;;
73638;Laerm;53743;51.100;5.874;2023-05-23T03:22:52;58.63;35.81;73.97;;
73638;Laerm;53743;51.100;5.874;2023-05-23T03:23:53;45.01;35.67;56.22;;
73638;Laerm;53743;51.100;5.874;2023-05-23T03:24:54;58.01;35.97;72.74;;
73638;Laerm;53743;51.100;5.874;2023-05-23T03:25:55;56.11;35.78;74.68;;
73638;Laerm;53743;51.100;5.874;2023-05-23T03:26:59;39.68;33.86;52.52;;
73638;Laerm;53743;51.100;5.874;2023-05-23T03:28:02;54.07;34.55;67.84;;
73638;Laerm;53743;51.100;5.874;2023-05-23T03:29:04;39.60;34.70;56.04;;
73638;Laerm;53743;51.100;5.874;2023-05-23T03:30:06;38.70;34.11;50.74;;
73638;Laerm;53743;51.100;5.874;2023-05-23T03:31:09;59.06;35.74;76.71;;
73638;Laerm;53743;51.100;5.874;2023-05-23T03:32:11;40.22;34.70;54.20;;
73638;Laerm;53743;51.100;5.874;2023-05-23T03:33:13;55.06;34.82;70.26;;
73638;Laerm;53743;51.100;5.874;2023-05-23T03:34:15;58.18;34.68;74.80;;
73638;Laerm;53743;51.100;5.874;2023-05-23T03:35:17;57.88;36.06;72.88;;
73638;Laerm;53743;51.100;5.874;2023-05-23T03:36:19;39.39;34.07;53.63;;
73638;Laerm;53743;51.100;5.874;2023-05-23T03:37:21;38.17;33.01;53.90;;
73638;Laerm;53743;51.100;5.874;2023-05-23T03:38:22;38.21;33.91;52.97;;
73638;Laerm;53743;51.100;5.874;2023-05-23T03:39:24;39.89;33.05;53.61;;
73638;Laerm;53743;51.100;5.874;2023-05-23T03:40:25;45.37;33.31;58.43;;
73638;Laerm;53743;51.100;5.874;2023-05-23T03:41:27;45.58;33.71;58.88;;
73638;Laerm;53743;51.100;5.874;2023-05-23T03:42:29;38.36;34.13;55.41;;
73638;Laerm;53743;51.100;5.874;2023-05-23T03:43:31;41.67;34.47;54.65;;
73638;Laerm;53743;51.100;5.874;2023-05-23T03:44:32;57.79;34.51;72.66;;
73638;Laerm;53743;51.100;5.874;2023-05-23T03:45:34;61.38;35.47;82.70;;
73638;Laerm;53743;51.100;5.874;2023-05-23T03:46:38;59.77;36.10;73.31;;
73638;Laerm;53743;51.100;5.874;2023-05-23T03:47:42;47.76;34.82;59.31;;
73638;Laerm;53743;51.100;5.874;2023-05-23T03:48:43;56.72;34.50;71.58;;
73638;Laerm;53743;51.100;5.874;2023-05-23T03:49:46;57.31;35.96;74.32;;
73638;Laerm;53743;51.100;5.874;2023-05-23T03:50:47;58.13;36.33;69.97;;
73638;Laerm;53743;51.100;5.874;2023-05-23T03:51:49;56.13;35.55;70.96;;
73638;Laerm;53743;51.100;5.874;2023-05-23T03:52:51;45.40;34.33;57.37;;
73638;Laerm;53743;51.100;5.874;2023-05-23T03:53:53;60.48;36.35;74.02;;
73638;Laerm;53743;51.100;5.874;2023-05-23T03:54:54;44.89;33.06;57.35;;
73638;Laerm;53743;51.100;5.874;2023-05-23T03:55:56;55.62;33.66;71.90;;
73638;Laerm;53743;51.100;5.874;2023-05-23T03:56:57;56.74;34.87;74.16;;
73638;Laerm;53743;51.100;5.874;2023-05-23T03:57:59;42.15;34.45;54.67;;
73638;Laerm;53743;51.100;5.874;2023-05-23T03:59:00;61.87;36.11;74.91;;
73638;Laerm;53743;51.100;5.874;2023-05-23T04:00:03;41.76;34.28;56.06;;
73638;Laerm;53743;51.100;5.874;2023-05-23T04:01:06;67.12;41.23;81.08;;
73638;Laerm;53743;51.100;5.874;2023-05-23T04:02:08;57.95;34.74;72.99;;
73638;Laerm;53743;51.100;5.874;2023-05-23T04:03:11;57.11;34.13;72.04;;
73638;Laerm;53743;51.100;5.874;2023-05-23T04:04:14;53.32;33.84;67.07;;
73638;Laerm;53743;51.100;5.874;2023-05-23T04:05:17;54.71;34.29;69.24;;
73638;Laerm;53743;51.100;5.874;2023-05-23T04:06:20;39.60;34.04;52.05;;
73638;Laerm;53743;51.100;5.874;2023-05-23T04:07:22;44.19;33.34;58.67;;
73638;Laerm;53743;51.100;5.874;2023-05-23T04:08:26;60.97;33.30;73.53;;
73638;Laerm;53743;51.100;5.874;2023-05-23T04:09:27;38.57;33.53;52.54;;
73638;Laerm;53743;51.100;5.874;2023-05-23T04:10:29;38.46;33.69;53.78;;
73638;Laerm;53743;51.100;5.874;2023-05-23T04:11:31;40.69;33.26;55.70;;
73638;Laerm;53743;51.100;5.874;2023-05-23T04:12:33;62.96;40.76;76.59;;
73638;Laerm;53743;51.100;5.874;2023-05-23T04:13:34;58.03;34.10;73.56;;
73638;Laerm;53743;51.100;5.874;2023-05-23T04:14:37;66.44;37.16;81.21;;
73638;Laerm;53743;51.100;5.874;2023-05-23T04:15:39;53.73;33.27;70.02;;
73638;Laerm;53743;51.100;5.874;2023-05-23T04:16:44;54.67;34.23;75.34;;
73638;Laerm;53743;51.100;5.874;2023-05-23T04:17:46;62.35;35.67;74.24;;
73638;Laerm;53743;51.100;5.874;2023-05-23T04:18:49;56.06;34.99;75.50;;
73638;Laerm;53743;51.100;5.874;2023-05-23T04:19:51;57.46;34.99;73.68;;
73638;Laerm;53743;51.100;5.874;2023-05-23T04:20:53;65.27;34.77;80.03;;
73638;Laerm;53743;51.100;5.874;2023-05-23T04:21:55;39.31;35.50;48.27;;
73638;Laerm;53743;51.100;5.874;2023-05-23T04:22:57;62.20;38.28;73.39;;
73638;Laerm;53743;51.100;5.874;2023-05-23T04:24:00;59.41;36.02;72.29;;
73638;Laerm;53743;51.100;5.874;2023-05-23T04:25:04;62.67;38.23;78.33;;
73638;Laerm;53743;51.100;5.874;2023-05-23T04:26:08;61.72;35.68;74.48;;
73638;Laerm;53743;51.100;5.874;2023-05-23T04:27:15;59.96;36.14;74.47;;
73638;Laerm;53743;51.100;5.874;2023-05-23T04:28:16;63.47;40.48;76.04;;
73638;Laerm;53743;51.100;5.874;2023-05-23T04:29:18;62.72;41.22;73.66;;
73638;Laerm;53743;51.100;5.874;2023-05-23T04:30:21;58.35;36.85;72.68;;
73638;Laerm;53743;51.100;5.874;2023-05-23T04:31:23;62.99;36.26;75.46;;
73638;Laerm;53743;51.100;5.874;2023-05-23T04:32:24;59.40;37.31;73.90;;
73638;Laerm;53743;51.100;5.874;2023-05-23T04:33:28;53.75;36.33;69.17;;
73638;Laerm;53743;51.100;5.874;2023-05-23T04:34:32;59.51;39.03;76.52;;
73638;Laerm;53743;51.100;5.874;2023-05-23T04:35:35;59.72;38.17;74.44;;
73638;Laerm;53743;51.100;5.874;2023-05-23T04:36:39;59.99;38.24;72.50;;
73638;Laerm;53743;51.100;5.874;2023-05-23T04:37:44;61.98;41.12;74.44;;
73638;Laerm;53743;51.100;5.874;2023-05-23T04:38:45;57.37;36.72;70.88;;
73638;Laerm;53743;51.100;5.874;2023-05-23T04:39:47;39.83;34.07;47.80;;
73638;Laerm;53743;51.100;5.874;2023-05-23T04:41:07;62.38;36.38;76.45;;
73638;Laerm;53743;51.100;5.874;2023-05-23T04:42:24;51.90;34.40;67.06;;
73638;Laerm;53743;51.100;5.874;2023-05-23T04:43:48;61.98;35.55;76.49;;
73638;Laerm;53743;51.100;5.874;2023-05-23T04:45:03;63.03;37.83;76.78;;
73638;Laerm;53743;51.100;5.874;2023-05-23T04:46:22;63.37;37.52;75.59;;
73638;Laerm;53743;51.100;5.874;2023-05-23T04:47:38;61.73;37.41;76.20;;
73638;Laerm;53743;51.100;5.874;2023-05-23T04:48:43;62.05;36.15;78.03;;
73638;Laerm;53743;51.100;5.874;2023-05-23T04:49:46;62.98;39.30;74.24;;
73638;Laerm;53743;51.100;5.874;2023-05-23T04:50:48;64.09;43.96;76.26;;
73638;Laerm;53743;51.100;5.874;2023-05-23T04:51:51;62.75;43.75;73.13;;
73638;Laerm;53743;51.100;5.874;2023-05-23T04:52:59;63.10;38.06;76.16;;
73638;Laerm;53743;51.100;5.874;2023-05-23T04:54:00;63.05;39.47;77.04;;
73638;Laerm;53743;51.100;5.874;2023-05-23T04:55:02;63.21;43.05;75.39;;
73638;Laerm;53743;51.100;5.874;2023-05-23T04:56:04;61.79;39.93;77.28;;
73638;Laerm;53743;51.100;5.874;2023-05-23T04:57:10;63.94;41.67;73.67;;
73638;Laerm;53743;51.100;5.874;2023-05-23T04:58:12;65.47;49.02;74.47;;
73638;Laerm;53743;51.100;5.874;2023-05-23T04:59:13;64.43;40.72;74.52;;
73638;Laerm;53743;51.100;5.874;2023-05-23T05:00:17;65.65;39.53;78.43;;
73638;Laerm;53743;51.100;5.874;2023-05-23T05:01:20;59.43;40.38;70.86;;
73638;Laerm;53743;51.100;5.874;2023-05-23T05:02:23;60.48;38.84;75.30;;
73638;Laerm;53743;51.100;5.874;2023-05-23T05:03:26;61.69;40.29;74.54;;
73638;Laerm;53743;51.100;5.874;2023-05-23T05:04:27;63.30;38.93;73.75;;
73638;Laerm;53743;51.100;5.874;2023-05-23T05:05:31;62.00;36.76;73.04;;
73638;Laerm;53743;51.100;5.874;2023-05-23T05:06:32;64.00;40.53;84.22;;
73638;Laerm;53743;51.100;5.874;2023-05-23T05:07:34;61.71;37.34;76.68;;
73638;Laerm;53743;51.100;5.874;2023-05-23T05:08:37;57.69;37.93;74.01;;
73638;Laerm;53743;51.100;5.874;2023-05-23T05:09:40;63.08;42.68;75.70;;
73638;Laerm;53743;51.100;5.874;2023-05-23T05:10:43;65.77;47.03;78.63;;
73638;Laerm;53743;51.100;5.874;2023-05-23T05:11:45;61.79;37.72;78.40;;
73638;Laerm;53743;51.100;5.874;2023-05-23T05:12:47;63.68;36.35;76.23;;
73638;Laerm;53743;51.100;5.874;2023-05-23T05:13:50;60.10;38.03;73.43;;
73638;Laerm;53743;51.100;5.874;2023-05-23T05:14:51;63.49;41.86;77.60;;
73638;Laerm;53743;51.100;5.874;2023-05-23T05:15:52;64.96;39.68;75.73;;
73638;Laerm;53743;51.100;5.874;2023-05-23T05:16:54;60.50;38.14;75.88;;
73638;Laerm;53743;51.100;5.874;2023-05-23T05:17:57;63.65;38.15;75.40;;
73638;Laerm;53743;51.100;5.874;2023-05-23T05:18:58;61.04;41.64;73.49;;
73638;Laerm;53743;51.100;5.874;2023-05-23T05:20:00;65.16;46.14;80.52;;
73638;Laerm;53743;51.100;5.874;2023-05-23T05:21:07;64.69;43.34;77.78;;
73638;Laerm;53743;51.100;5.874;2023-05-23T05:22:08;43.69;37.26;55.61;;
73638;Laerm;53743;51.100;5.874;2023-05-23T05:23:09;60.23;38.56;74.89;;
73638;Laerm;53743;51.100;5.874;2023-05-23T05:24:11;62.48;42.43;73.46;;
73638;Laerm;53743;51.100;5.874;2023-05-23T05:25:13;64.18;49.07;76.28;;
73638;Laerm;53743;51.100;5.874;2023-05-23T05:26:14;64.20;41.26;73.71;;
73638;Laerm;53743;51.100;5.874;2023-05-23T05:27:16;65.98;42.50;77.81;;
73638;Laerm;53743;51.100;5.874;2023-05-23T05:28:18;63.06;39.22;74.30;;
73638;Laerm;53743;51.100;5.874;2023-05-23T05:29:24;66.24;38.68;75.42;;
73638;Laerm;53743;51.100;5.874;2023-05-23T05:30:26;65.99;47.63;75.69;;
73638;Laerm;53743;51.100;5.874;2023-05-23T05:31:31;64.60;37.58;79.01;;
73638;Laerm;53743;51.100;5.874;2023-05-23T05:32:33;58.26;37.75;71.88;;
73638;Laerm;53743;51.100;5.874;2023-05-23T05:33:36;64.60;50.44;72.22;;
73638;Laerm;53743;51.100;5.874;2023-05-23T05:34:42;63.66;42.88;73.07;;
73638;Laerm;53743;51.100;5.874;2023-05-23T05:35:43;66.44;40.23;77.48;;
73638;Laerm;53743;51.100;5.874;2023-05-23T05:36:47;62.06;39.93;71.03;;
73638;Laerm;53743;51.100;5.874;2023-05-23T05:37:50;61.49;37.98;74.69;;
73638;Laerm;53743;51.100;5.874;2023-05-23T05:38:52;63.54;40.41;73.12;;
73638;Laerm;53743;51.100;5.874;2023-05-23T05:39:55;64.50;42.98;79.15;;
73638;Laerm;53743;51.100;5.874;2023-05-23T05:40:57;62.02;41.80;74.82;;
73638;Laerm;53743;51.100;5.874;2023-05-23T05:42:02;63.00;38.53;74.73;;
73638;Laerm;53743;51.100;5.874;2023-05-23T05:43:05;64.39;39.06;73.88;;
73638;Laerm;53743;51.100;5.874;2023-05-23T05:44:08;63.03;41.13;74.37;;
73638;Laerm;53743;51.100;5.874;2023-05-23T05:45:10;64.07;40.78;74.90;;
73638;Laerm;53743;51.100;5.874;2023-05-23T05:46:13;62.62;39.70;74.56;;
73638;Laerm;53743;51.100;5.874;2023-05-23T05:47:15;66.74;53.54;78.72;;
73638;Laerm;53743;51.100;5.874;2023-05-23T05:48:17;66.07;50.50;76.02;;
73638;Laerm;53743;51.100;5.874;2023-05-23T05:49:18;66.08;50.79;77.69;;
73638;Laerm;53743;51.100;5.874;2023-05-23T05:50:20;70.08;53.79;83.67;;
73638;Laerm;53743;51.100;5.874;2023-05-23T05:51:21;63.61;44.56;75.93;;
73638;Laerm;53743;51.100;5.874;2023-05-23T05:52:25;67.33;45.34;80.68;;
73638;Laerm;53743;51.100;5.874;2023-05-23T05:53:26;63.25;45.01;74.34;;
73638;Laerm;53743;51.100;5.874;2023-05-23T05:54:28;62.93;41.61;75.59;;